.
WxDataArchive / Data Records for 2007-11-17
2007-11-16 November 2007 2007-11-18

Data Records for Saturday, 17 November 2007

Time	Temp	Chill	HIndex	Humid	Dewpt	 Wind 	HiWind	WindDir	Rain 	Barom 
-----	----	-----	------	-----	-----	------	------	-------	-----	----- 
00:00	34.1	34.1	34.1	79	28.3	0	1	225	0.00	29.941 
00:05	34.3	34.3	34.3	79	28.5	0	1	225	0.00	29.942 
00:10	34.3	34.3	34.3	79	28.5	0	2	225	0.00	29.941 
00:15	34.4	34.4	34.4	78	28.3	0	2	225	0.00	29.937 
00:20	34.6	34.6	34.6	78	28.5	0	2	180	0.00	29.934 
00:25	34.6	34.6	34.6	79	28.8	0	1	180	0.00	29.931 
00:30	34.6	34.6	34.6	79	28.8	1	3	180	0.00	29.927 
00:35	34.6	34.6	34.6	79	28.8	1	2	90	0.00	29.927 
00:40	34.6	34.6	34.6	79	28.8	1	2	90	0.00	29.926 
00:45	34.4	34.4	34.4	78	28.3	0	2	90	0.00	29.924 
00:50	34.4	34.4	34.4	79	28.6	0	2	90	0.00	29.923 
00:55	34.4	34.4	34.4	80	28.9	0	1	90	0.00	29.921 
01:00	34.3	34.3	34.3	80	28.8	0	2	90	0.00	29.913 
01:05	34.3	34.3	34.3	80	28.8	1	2	90	0.00	29.913 
01:10	34.1	34.1	34.1	80	28.6	1	4	90	0.00	29.913 
01:15	34.1	34.1	34.1	81	28.9	0	2	90	0.00	29.911 
01:20	34.1	34.1	34.1	81	28.9	0	1	90	0.00	29.910 
01:25	34.1	34.1	34.1	81	28.9	0	1	90	0.00	29.908 
01:30	34.1	34.1	34.1	80	28.6	0	1	90	0.00	29.906 
01:35	34.1	34.1	34.1	80	28.6	0	1	90	0.00	29.901 
01:40	34.1	34.1	34.1	80	28.6	0	2	90	0.00	29.898 
01:45	34.3	34.3	34.3	80	28.8	0	2	90	0.00	29.897 
01:50	34.3	34.3	34.3	80	28.8	0	1	90	0.00	29.896 
01:55	34.3	34.3	34.3	80	28.8	0	2	90	0.00	29.895 
02:00	34.3	34.3	34.3	79	28.5	0	3	112	0.00	29.895 
02:05	34.4	34.4	34.4	79	28.6	0	3	112	0.00	29.894 
02:10	34.4	34.4	34.4	79	28.6	0	1	112	0.00	29.895 
02:15	34.4	34.4	34.4	79	28.6	0	2	135	0.00	29.893 
02:20	34.4	34.4	34.4	79	28.6	0	2	135	0.00	29.892 
02:25	34.6	34.6	34.6	79	28.8	0	1	135	0.00	29.892 
02:30	34.6	34.6	34.6	79	28.8	0	1	135	0.00	29.891 
02:35	34.6	34.6	34.6	79	28.8	0	1	135	0.00	29.891 
02:40	34.6	34.6	34.6	79	28.8	0	2	135	0.00	29.890 
02:45	34.6	34.6	34.6	79	28.8	0	2	135	0.00	29.885 
02:50	34.7	34.7	34.7	79	28.9	0	1	135	0.00	29.882 
02:55	34.7	34.7	34.7	79	28.9	0	2	135	0.00	29.880 
03:00	34.7	34.7	34.7	79	28.9	0	2	135	0.00	29.879 
03:05	34.7	34.7	34.7	79	28.9	0	2	135	0.00	29.879 
03:10	34.7	34.7	34.7	79	28.9	1	2	112	0.00	29.879 
03:15	34.6	34.6	34.6	79	28.8	0	2	112	0.00	29.880 
03:20	34.6	34.6	34.6	79	28.8	0	2	112	0.00	29.880 
03:25	34.6	34.6	34.6	79	28.8	0	1	112	0.00	29.877 
03:30	34.6	34.6	34.6	80	29.1	0	1	112	0.00	29.872 
03:35	34.4	34.4	34.4	80	28.9	0	1	112	0.00	29.872 
03:40	34.4	34.4	34.4	80	28.9	0	1	112	0.00	29.871 
03:45	34.4	34.4	34.4	80	28.9	0	1	112	0.00	29.869 
03:50	34.4	34.4	34.4	80	28.9	0	2	112	0.00	29.866 
03:55	34.4	34.4	34.4	80	28.9	0	1	112	0.00	29.866 
04:00	34.4	34.4	34.4	80	28.9	0	1	112	0.00	29.867 
04:05	34.6	34.6	34.6	80	29.1	0	2	112	0.00	29.865 
04:10	34.6	34.6	34.6	80	29.1	0	1	112	0.00	29.862 
04:15	34.6	34.6	34.6	80	29.1	0	2	112	0.00	29.858 
04:20	34.6	34.6	34.6	80	29.1	0	1	135	0.00	29.857 
04:25	34.6	34.6	34.6	80	29.1	1	3	135	0.00	29.854 
04:30	34.6	34.6	34.6	80	29.1	0	2	135	0.00	29.851 
04:35	34.6	34.6	34.6	80	29.1	0	2	135	0.00	29.851 
04:40	34.6	34.6	34.6	80	29.1	0	1	135	0.00	29.849 
04:45	34.6	34.6	34.6	80	29.1	0	1	135	0.00	29.848 
04:50	34.4	34.4	34.4	81	29.2	0	1	135	0.00	29.850 
04:55	34.4	34.4	34.4	81	29.2	0	3	135	0.00	29.850 
05:00	34.4	34.4	34.4	81	29.2	0	2	135	0.00	29.850 
05:05	34.4	34.4	34.4	81	29.2	0	1	135	0.00	29.849 
05:10	34.4	34.4	34.4	81	29.2	0	1	135	0.00	29.849 
05:15	34.4	34.4	34.4	81	29.2	0	1	135	0.00	29.849 
05:20	34.4	34.4	34.4	81	29.2	0	1	135	0.00	29.850 
05:25	34.4	34.4	34.4	81	29.2	0	1	135	0.00	29.850 
05:30	34.6	34.6	34.6	81	29.4	0	1	135	0.00	29.850 
05:35	34.6	34.6	34.6	81	29.4	0	2	135	0.00	29.850 
05:40	34.6	34.6	34.6	81	29.4	0	1	135	0.00	29.849 
05:45	34.6	34.6	34.6	81	29.4	0	1	135	0.00	29.847 
05:50	34.6	34.6	34.6	81	29.4	0	1	135	0.00	29.844 
05:55	34.6	34.6	34.6	81	29.4	0	1	135	0.00	29.842 
06:00	34.6	34.6	34.6	81	29.4	0	1	135	0.00	29.838 
06:05	34.6	34.6	34.6	81	29.4	0	2	135	0.00	29.835 
06:10	34.7	34.7	34.7	81	29.5	0	1	135	0.00	29.835 
06:15	34.7	34.7	34.7	81	29.5	0	1	135	0.00	29.835 
06:20	34.9	34.9	34.9	81	29.7	0	1	135	0.00	29.834 
06:25	34.9	34.9	34.9	81	29.7	0	1	135	0.00	29.834 
06:30	34.9	34.9	34.9	81	29.7	0	1	135	0.00	29.835 
06:35	35.0	35.0	35.0	81	29.8	0	1	135	0.00	29.834 
06:40	35.0	35.0	35.0	81	29.8	0	1	135	0.00	29.835 
06:45	35.0	35.0	35.0	81	29.8	0	0	---	0.00	29.835 
06:50	35.2	35.2	35.2	81	30.0	0	1	135	0.00	29.834 
06:55	35.2	35.2	35.2	81	30.0	0	1	135	0.00	29.834 
07:00	35.2	35.2	35.2	81	30.0	0	1	135	0.00	29.834 
07:05	35.3	35.3	35.3	80	29.8	0	1	135	0.00	29.835 
07:10	35.3	35.3	35.3	81	30.1	0	1	135	0.00	29.835 
07:15	35.3	35.3	35.3	81	30.1	0	1	135	0.00	29.836 
07:20	35.3	35.3	35.3	81	30.1	0	1	135	0.00	29.838 
07:25	35.5	35.5	35.5	81	30.3	0	1	135	0.00	29.838 
07:30	35.5	35.5	35.5	81	30.3	0	0	---	0.00	29.846 
07:35	35.5	35.5	35.5	81	30.3	0	0	---	0.00	29.848 
07:40	35.5	35.5	35.5	81	30.3	0	0	---	0.00	29.848 
07:45	35.5	35.5	35.5	81	30.3	0	1	135	0.00	29.841 
07:50	35.6	35.6	35.6	81	30.4	0	1	135	0.00	29.835 
07:55	35.6	35.6	35.6	81	30.4	0	2	135	0.00	29.835 
08:00	35.8	35.8	35.8	81	30.6	0	2	135	0.00	29.832 
08:05	35.9	35.9	35.9	81	30.6	0	1	135	0.00	29.836 
08:10	36.0	36.0	36.0	81	30.7	0	1	135	0.00	29.842 
08:15	36.2	36.2	36.2	80	30.6	0	2	135	0.00	29.840 
08:20	36.3	36.3	36.3	80	30.7	0	1	135	0.00	29.842 
08:25	36.5	36.5	36.5	80	30.9	0	1	135	0.00	29.844 
08:30	36.6	36.6	36.6	80	31.0	0	1	135	0.00	29.846 
08:35	36.8	36.8	36.8	80	31.2	0	2	135	0.00	29.840 
08:40	36.9	36.9	36.9	79	31.0	0	2	135	0.00	29.847 
08:45	37.0	37.0	37.0	79	31.1	0	1	135	0.00	29.848 
08:50	37.2	37.2	37.2	78	31.0	0	1	135	0.00	29.848 
08:55	37.3	37.3	37.3	78	31.1	0	1	135	0.00	29.850 
09:00	37.5	37.5	37.5	77	31.0	0	2	135	0.00	29.849 
09:05	37.5	37.5	37.5	77	31.0	0	2	135	0.00	29.848 
09:10	37.6	37.6	37.6	78	31.4	0	1	135	0.00	29.849 
09:15	37.8	37.8	37.8	77	31.2	0	2	135	0.00	29.851 
09:20	37.9	37.9	37.9	77	31.3	1	2	135	0.00	29.853 
09:25	38.0	38.0	38.0	77	31.4	0	1	135	0.00	29.855 
09:30	38.2	38.2	38.2	77	31.6	0	1	135	0.00	29.859 
09:35	38.3	38.3	38.3	76	31.4	0	2	135	0.00	29.855 
09:40	38.3	38.3	38.3	76	31.4	1	2	135	0.00	29.855 
09:45	38.5	38.5	38.5	76	31.6	0	2	135	0.00	29.852 
09:50	38.6	38.6	38.6	76	31.7	1	2	135	0.00	29.851 
09:55	38.9	38.9	38.9	75	31.7	1	2	90	0.00	29.855 
10:00	39.1	39.1	39.1	75	31.9	1	2	90	0.00	29.846 
10:05	39.2	39.2	39.2	74	31.6	0	3	90	0.00	29.851 
10:10	39.5	39.5	39.5	74	31.9	0	3	90	0.00	29.851 
10:15	39.6	39.6	39.6	73	31.7	1	3	90	0.00	29.846 
10:20	39.8	39.8	39.8	73	31.9	0	2	90	0.00	29.851 
10:25	39.9	39.9	39.9	72	31.6	0	2	90	0.00	29.853 
10:30	40.1	40.1	40.1	72	31.8	0	2	90	0.00	29.858 
10:35	40.3	40.3	40.3	72	32.0	0	2	90	0.00	29.860 
10:40	40.5	40.5	40.5	71	31.8	1	3	90	0.00	29.859 
10:45	40.8	40.8	40.8	72	32.5	0	2	180	0.00	29.861 
10:50	41.1	41.1	41.1	69	31.7	0	2	180	0.00	29.863 
10:55	41.3	41.3	41.3	69	31.9	0	2	135	0.00	29.864 
11:00	41.5	41.5	41.5	68	31.7	1	3	112	0.00	29.860 
11:05	41.5	41.5	41.5	68	31.7	1	3	112	0.00	29.858 
11:10	41.6	41.6	41.6	66	31.1	0	3	135	0.00	29.859 
11:15	41.6	41.6	41.6	66	31.1	1	3	112	0.00	29.856 
11:20	41.8	41.8	41.8	67	31.7	1	3	112	0.00	29.861 
11:25	41.9	41.9	41.9	66	31.4	0	2	112	0.00	29.861 
11:30	42.2	42.2	42.2	65	31.3	0	2	112	0.00	29.860 
11:35	42.3	42.3	42.3	65	31.4	0	1	112	0.00	29.859 
11:40	42.6	42.6	42.6	65	31.7	1	2	112	0.00	29.861 
11:45	42.6	42.6	42.6	63	30.9	0	2	248	0.00	29.859 
11:50	42.6	42.6	42.6	64	31.3	0	2	248	0.00	29.858 
11:55	42.8	42.8	42.8	64	31.5	0	1	248	0.00	29.859 
12:00	42.9	42.9	42.9	63	31.2	0	2	248	0.00	29.859 
12:05	42.8	42.8	42.8	64	31.5	0	2	248	0.00	29.856 
12:10	42.6	42.6	42.6	63	30.9	0	2	248	0.00	29.852 
12:15	42.6	42.6	42.6	64	31.3	1	3	90	0.00	29.846 
12:20	42.6	42.6	42.6	65	31.7	1	3	90	0.00	29.844 
12:25	42.6	42.6	42.6	63	30.9	1	2	90	0.00	29.843 
12:30	42.6	42.6	42.6	64	31.3	0	3	90	0.00	29.843 
12:35	42.6	42.6	42.6	63	30.9	0	0	---	0.00	29.846 
12:40	42.8	42.8	42.8	63	31.1	0	2	90	0.00	29.845 
12:45	42.9	42.9	42.9	62	30.8	0	0	---	0.00	29.847 
12:50	43.1	43.1	43.1	62	31.0	0	1	90	0.00	29.846 
12:55	43.1	43.1	43.1	63	31.4	0	1	90	0.00	29.845 
13:00	43.2	43.2	43.2	65	32.2	0	2	90	0.00	29.844 
13:05	43.3	43.3	43.3	64	32.0	0	2	90	0.00	29.844 
13:10	43.3	43.3	43.3	63	31.6	0	2	90	0.00	29.845 
13:15	43.2	43.2	43.2	66	32.6	1	3	90	0.00	29.843 
13:20	43.1	43.1	43.1	64	31.8	1	3	90	0.00	29.844 
13:25	42.9	42.9	42.9	65	32.0	0	2	90	0.00	29.845 
13:30	42.9	42.9	42.9	65	32.0	1	4	90	0.00	29.845 
13:35	43.1	43.1	43.1	68	33.3	0	2	112	0.00	29.841 
13:40	42.9	42.9	42.9	68	33.1	0	2	112	0.00	29.841 
13:45	42.6	42.6	42.6	69	33.2	1	3	112	0.00	29.835 
13:50	42.2	42.2	42.2	69	32.8	0	2	68	0.00	29.835 
13:55	42.1	42.1	42.1	71	33.4	1	5	68	0.00	29.841 
14:00	41.8	41.8	41.8	72	33.4	1	4	90	0.00	29.843 
14:05	41.6	41.6	41.6	72	33.3	2	5	112	0.00	29.843 
14:10	41.6	41.6	41.6	71	32.9	2	5	112	0.00	29.844 
14:15	41.5	41.5	41.5	72	33.2	1	4	112	0.00	29.846 
14:20	41.5	41.5	41.5	73	33.5	1	4	90	0.00	29.849 
14:25	41.5	41.5	41.5	73	33.5	0	4	112	0.00	29.854 
14:30	41.3	41.3	41.3	73	33.3	2	5	112	0.00	29.854 
14:35	41.1	41.1	41.1	73	33.1	2	5	112	0.00	29.852 
14:40	41.1	41.1	41.1	74	33.5	1	6	90	0.00	29.850 
14:45	41.1	41.1	41.1	76	34.1	2	5	112	0.00	29.855 
14:50	41.1	41.1	41.1	76	34.1	1	5	112	0.00	29.854 
14:55	41.1	41.1	41.1	77	34.4	1	3	112	0.00	29.858 
15:00	41.1	41.1	41.1	77	34.4	1	2	112	0.00	29.860 
15:05	41.1	41.1	41.1	77	34.4	1	4	112	0.00	29.864 
15:10	40.9	40.9	40.9	77	34.3	0	3	112	0.00	29.870 
15:15	41.1	41.1	41.1	78	34.8	0	2	112	0.00	29.874 
15:20	41.1	41.1	41.1	78	34.8	0	2	112	0.00	29.875 
15:25	41.1	41.1	41.1	77	34.4	1	3	68	0.00	29.877 
15:30	41.1	41.1	41.1	79	35.1	1	4	90	0.00	29.878 
15:35	40.8	40.8	40.8	79	34.8	2	6	112	0.00	29.878 
15:40	40.6	40.6	40.6	81	35.2	1	5	90	0.00	29.880 
15:45	40.5	40.5	40.5	82	35.4	1	3	112	0.00	29.881 
15:50	40.3	40.3	40.3	82	35.2	1	3	90	0.01	29.885 
15:55	40.3	40.3	40.3	83	35.6	1	2	90	0.00	29.885 
16:00	40.2	40.2	40.2	84	35.8	1	3	90	0.00	29.888 
16:05	40.1	40.1	40.1	84	35.7	1	2	90	0.00	29.892 
16:10	40.1	40.1	40.1	85	36.0	1	4	90	0.00	29.894 
16:15	39.9	39.9	39.9	85	35.8	1	4	45	0.00	29.896 
16:20	39.6	39.6	39.6	85	35.5	1	5	112	0.00	29.897 
16:25	39.5	39.5	39.5	85	35.4	1	5	112	0.00	29.897 
16:30	39.3	39.3	39.3	86	35.5	1	4	112	0.00	29.907 
16:35	39.1	39.1	39.1	87	35.6	1	4	112	0.00	29.910 
16:40	38.9	38.9	38.9	87	35.4	0	3	45	0.00	29.911 
16:45	38.8	38.8	38.8	88	35.6	1	3	90	0.00	29.913 
16:50	38.6	38.6	38.6	88	35.4	1	2	90	0.01	29.920 
16:55	38.6	38.6	38.6	89	35.6	0	2	90	0.00	29.923 
17:00	38.5	38.5	38.5	89	35.5	1	3	90	0.00	29.926 
17:05	38.3	38.3	38.3	89	35.3	0	2	90	0.00	29.927 
17:10	38.2	38.2	38.2	90	35.5	0	2	90	0.01	29.929 
17:15	38.0	38.0	38.0	90	35.3	0	2	90	0.00	29.930 
17:20	37.9	37.9	37.9	90	35.2	0	2	90	0.01	29.932 
17:25	37.8	37.8	37.8	91	35.4	0	2	112	0.00	29.932 
17:30	37.6	37.6	37.6	91	35.2	0	2	112	0.01	29.938 
17:35	37.5	37.5	37.5	91	35.1	0	1	112	0.00	29.940 
17:40	37.3	37.3	37.3	91	34.9	0	2	90	0.00	29.942 
17:45	37.2	37.2	37.2	92	35.1	1	3	90	0.01	29.942 
17:50	37.0	37.0	37.0	92	34.9	1	3	90	0.00	29.944 
17:55	36.6	36.6	36.6	91	34.2	1	3	135	0.00	29.948 
18:00	36.5	36.5	36.5	92	34.4	0	2	68	0.00	29.954 
18:05	36.5	36.5	36.5	92	34.4	0	1	68	0.00	29.958 
18:10	36.3	36.3	36.3	92	34.2	0	2	68	0.01	29.959 
18:15	36.3	36.3	36.3	92	34.2	1	3	68	0.00	29.960 
18:20	36.2	36.2	36.2	92	34.1	0	2	45	0.00	29.962 
18:25	36.2	36.2	36.2	92	34.1	1	4	45	0.00	29.962 
18:30	36.0	36.0	36.0	92	33.9	1	4	135	0.01	29.967 
18:35	35.9	35.9	35.9	92	33.8	0	3	68	0.00	29.973 
18:40	35.9	35.9	35.9	93	34.1	0	3	135	0.00	29.974 
18:45	35.8	35.8	35.8	93	34.0	0	3	112	0.00	29.975 
18:50	35.8	35.8	35.8	93	34.0	0	2	45	0.00	29.976 
18:55	35.8	35.8	35.8	93	34.0	0	2	45	0.00	29.975 
19:00	35.8	35.8	35.8	93	34.0	0	1	45	0.00	29.979 
19:05	35.8	35.8	35.8	93	34.0	0	1	45	0.00	29.981 
19:10	35.8	35.8	35.8	94	34.2	0	2	45	0.00	29.982 
19:15	35.9	35.9	35.9	94	34.3	0	2	112	0.00	29.976 
19:20	35.9	35.9	35.9	94	34.3	0	2	112	0.00	29.975 
19:25	35.9	35.9	35.9	94	34.3	0	2	112	0.00	29.979 
19:30	35.9	35.9	35.9	94	34.3	0	2	112	0.00	29.983 
19:35	36.0	36.0	36.0	94	34.4	0	2	112	0.00	29.984 
19:40	36.0	36.0	36.0	94	34.4	0	2	112	0.00	29.986 
19:45	36.2	36.2	36.2	94	34.6	0	2	68	0.00	29.987 
19:50	36.2	36.2	36.2	94	34.6	0	3	68	0.00	29.989 
19:55	36.2	36.2	36.2	94	34.6	0	3	135	0.00	29.989 
20:00	36.3	36.3	36.3	94	34.7	0	2	112	0.00	29.990 
20:05	36.3	36.3	36.3	94	34.7	0	3	112	0.00	29.988 
20:10	36.3	36.3	36.3	94	34.7	1	3	90	0.00	29.988 
20:15	36.3	36.3	36.3	94	34.7	1	4	112	0.00	29.991 
20:20	36.2	36.2	36.2	94	34.6	0	2	90	0.00	29.993 
20:25	36.2	36.2	36.2	94	34.6	1	2	90	0.00	29.991 
20:30	36.2	36.2	36.2	94	34.6	1	4	90	0.00	29.994 
20:35	36.2	36.2	36.2	94	34.6	1	4	68	0.00	29.994 
20:40	36.2	36.2	36.2	94	34.6	1	4	90	0.00	29.994 
20:45	36.3	36.3	36.3	94	34.7	0	3	90	0.00	29.997 
20:50	36.3	36.3	36.3	94	34.7	0	2	45	0.00	30.000 
20:55	36.3	36.3	36.3	94	34.7	0	2	90	0.00	30.002 
21:00	36.3	36.3	36.3	94	34.7	1	6	112	0.00	30.003 
21:05	36.3	36.3	36.3	94	34.7	0	2	112	0.00	30.004 
21:10	36.3	36.3	36.3	94	34.7	1	3	112	0.00	30.007 
21:15	36.3	36.3	36.3	94	34.7	1	2	112	0.00	30.012 
21:20	36.3	36.3	36.3	94	34.7	1	3	112	0.01	30.017 
21:25	36.2	36.2	36.2	94	34.6	0	2	112	0.00	30.017 
21:30	36.2	36.2	36.2	94	34.6	1	3	90	0.00	30.018 
21:35	36.2	36.2	36.2	94	34.6	0	3	68	0.00	30.019 
21:40	36.2	36.2	36.2	94	34.6	0	2	68	0.00	30.018 
21:45	36.2	36.2	36.2	94	34.6	1	5	68	0.00	30.014 
21:50	36.2	36.2	36.2	94	34.6	1	3	112	0.00	30.018 
21:55	36.2	36.2	36.2	94	34.6	1	3	90	0.00	30.020 
22:00	36.0	36.0	36.0	94	34.4	1	3	90	0.00	30.020 
22:05	36.0	36.0	36.0	94	34.4	1	4	68	0.00	30.017 
22:10	36.0	36.0	36.0	94	34.4	0	2	112	0.00	30.021 
22:15	36.2	36.2	36.2	94	34.6	0	1	112	0.00	30.022 
22:20	36.2	36.2	36.2	94	34.6	0	2	112	0.00	30.018 
22:25	36.2	36.2	36.2	94	34.6	1	5	112	0.00	30.022 
22:30	36.2	36.2	36.2	94	34.6	2	9	112	0.00	30.020 
22:35	36.2	36.2	36.2	94	34.6	1	6	90	0.00	30.020 
22:40	36.2	36.2	36.2	93	34.4	1	4	112	0.00	30.028 
22:45	36.2	36.2	36.2	93	34.4	1	2	68	0.00	30.029 
22:50	36.2	36.2	36.2	93	34.4	1	5	112	0.00	30.029 
22:55	36.2	36.2	36.2	93	34.4	1	3	45	0.00	30.030 
23:00	36.2	36.2	36.2	93	34.4	2	5	112	0.00	30.032 
23:05	36.3	36.3	36.3	93	34.5	1	4	112	0.00	30.032 
23:10	36.3	36.3	36.3	93	34.5	1	4	45	0.00	30.034 
23:15	36.3	36.3	36.3	93	34.5	2	10	90	0.00	30.034 
23:20	36.3	36.3	36.3	93	34.5	2	5	112	0.00	30.034 
23:25	36.3	36.3	36.3	92	34.2	1	5	22	0.00	30.034 
23:30	36.3	36.3	36.3	92	34.2	1	4	112	0.00	30.037 
23:35	36.3	36.3	36.3	92	34.2	1	3	68	0.00	30.040 
23:40	36.5	36.5	36.5	92	34.4	1	5	112	0.00	30.041 
23:45	36.5	36.5	36.5	92	34.4	1	5	135	0.00	30.042 
23:50	36.5	36.5	36.5	92	34.4	1	4	90	0.00	30.043 
23:55	36.5	36.5	36.5	92	34.4	1	6	90	0.00	30.044 

CoCoRaHS
IN-AL-39
A2 Web Hosting
Creative Commons License
GoDaddy
Look for:

loaded 2017-10-16 18:07:15 • last modified 2010-11-18 10:43:29
Privacy PolicyDisclaimer
• wx.awcolley.com is powered by PmWiki v.2002016 •
• all content (unless otherwise noted) © 2017 A W Colley